Colchester, United Kingdom
Current Conditions -  °F | °C
As of 8:50 AM on Thursday 18 Dec 2014 (Local Time) from EGUW Reporting Station
Broken Clouds Broken Clouds  
Wind Chill: 12°   Ceiling: 1500
Heat Index: 12°   Visibility: 6mi
Dew Point: 10°   Wind: 17mph
Humidity: 88%   Direction: 240°WSW
Pressure: 29.74"   Gusts: NA
Location:  51.89°N, 0.9°E
Report Text: EGUW 180850Z 24015KT 9999 BKN015 12/10 Q1007 WHT NOSIG
Loading
Personal Weather Stations






























Interactive Weather Map New forecast layout! Learn more

10-Day Weather Forecast

Advertisements
Track Severe Weather on mobile